createdAt,value
2018-04-18T00:00:37.517Z,9.40
2018-04-18T00:03:05.155Z,11.10
2018-04-18T00:05:32.790Z,9.97
2018-04-18T00:08:00.402Z,9.57
2018-04-18T00:10:28.058Z,8.53
2018-04-18T00:12:55.695Z,8.87
2018-04-18T00:15:23.307Z,8.50
2018-04-18T00:17:50.935Z,7.90
2018-04-18T00:20:18.537Z,10.70
2018-04-18T00:22:46.166Z,10.80
2018-04-18T00:25:13.770Z,10.73
2018-04-18T00:27:41.398Z,10.03
2018-04-18T00:30:09.027Z,9.53
2018-04-18T00:32:36.661Z,8.70
2018-04-18T00:35:04.269Z,9.53
2018-04-18T00:37:31.895Z,8.43
2018-04-18T00:39:59.510Z,10.67
2018-04-18T00:42:27.139Z,9.20
2018-04-18T00:44:54.743Z,10.20
2018-04-18T00:47:22.376Z,9.87
2018-04-18T00:49:49.978Z,10.03
2018-04-18T00:52:17.609Z,9.47
2018-04-18T00:54:45.252Z,10.60
2018-04-18T00:57:12.895Z,10.97
2018-04-18T00:59:40.506Z,10.40
2018-04-18T01:02:08.236Z,9.67
2018-04-18T01:04:35.894Z,10.20
2018-04-18T01:07:03.529Z,9.83
2018-04-18T01:09:31.137Z,10.73
2018-04-18T01:11:58.779Z,9.83
2018-04-18T01:14:26.419Z,10.03
2018-04-18T01:16:54.107Z,11.83
2018-04-18T01:19:21.715Z,10.60
2018-04-18T01:21:49.443Z,11.93
2018-04-18T01:24:17.103Z,12.87
2018-04-18T01:26:44.716Z,11.50
2018-04-18T01:29:12.350Z,12.77
2018-04-18T01:31:39.982Z,10.93
2018-04-18T01:34:07.650Z,12.33
2018-04-18T01:36:35.269Z,11.27
2018-04-18T01:39:02.903Z,10.47
2018-04-18T01:41:30.535Z,9.67
2018-04-18T01:43:58.171Z,8.33
2018-04-18T01:46:25.788Z,9.30
2018-04-18T01:49:05.326Z,9.60
2018-04-18T01:51:32.930Z,9.53
2018-04-18T01:54:00.617Z,9.83
2018-04-18T01:56:28.223Z,9.80
2018-04-18T01:58:55.860Z,9.30
2018-04-18T02:01:23.515Z,10.13
2018-04-18T02:03:51.151Z,9.77
2018-04-18T02:06:18.762Z,9.00
2018-04-18T02:08:46.403Z,8.80
2018-04-18T02:11:14.060Z,9.63
2018-04-18T02:13:41.732Z,10.30
2018-04-18T02:16:09.338Z,9.10
2018-04-18T02:18:36.967Z,9.40
2018-04-18T02:21:04.603Z,9.00
2018-04-18T02:23:32.262Z,8.63
2018-04-18T02:25:59.931Z,9.57
2018-04-18T02:28:27.563Z,9.27
2018-04-18T02:30:55.188Z,8.73
2018-04-18T02:33:22.837Z,9.33
2018-04-18T02:35:50.455Z,9.70
2018-04-18T02:38:18.124Z,9.43
2018-04-18T02:40:45.803Z,8.47
2018-04-18T02:43:13.460Z,8.10
2018-04-18T02:45:41.070Z,9.20
2018-04-18T02:48:08.680Z,7.63
2018-04-18T02:50:36.311Z,8.77
2018-04-18T02:53:04.006Z,7.87
2018-04-18T02:55:31.643Z,9.00
2018-04-18T02:57:59.331Z,8.50
2018-04-18T03:00:26.958Z,8.40
2018-04-18T03:02:54.663Z,8.50
2018-04-18T03:05:22.322Z,8.10
2018-04-18T03:07:49.923Z,8.70
2018-04-18T03:10:17.651Z,7.23
2018-04-18T03:12:45.264Z,7.30
2018-04-18T03:15:12.975Z,7.37
2018-04-18T03:17:40.582Z,7.40
2018-04-18T03:20:08.207Z,8.77
2018-04-18T03:22:35.814Z,7.80
2018-04-18T03:25:03.447Z,7.00
2018-04-18T03:27:31.082Z,9.00
2018-04-18T03:29:58.710Z,8.37
2018-04-18T03:32:26.335Z,10.23
2018-04-18T03:34:53.966Z,9.17
2018-04-18T03:37:21.584Z,9.67
2018-04-18T03:39:49.219Z,8.93
2018-04-18T03:42:16.859Z,8.23
2018-04-18T03:44:44.490Z,7.70
2018-04-18T03:47:12.183Z,7.67
2018-04-18T03:49:39.847Z,8.00
2018-04-18T03:52:07.446Z,8.10
2018-04-18T03:54:35.071Z,8.77
2018-04-18T03:57:02.684Z,7.07
2018-04-18T03:59:30.323Z,10.00
2018-04-18T04:01:57.959Z,9.00
2018-04-18T04:04:25.628Z,10.73
2018-04-18T04:06:53.258Z,10.10
2018-04-18T04:09:20.942Z,10.63
2018-04-18T04:11:48.577Z,9.30
2018-04-18T04:14:16.194Z,9.70
2018-04-18T04:16:55.532Z,9.00
2018-04-18T04:22:36.295Z,10.17
2018-04-18T04:25:03.958Z,10.23
2018-04-18T04:27:31.615Z,9.93
2018-04-18T04:29:59.231Z,11.07
2018-04-18T04:32:26.944Z,9.77
2018-04-18T04:34:54.546Z,9.17
2018-04-18T04:37:22.179Z,10.90
2018-04-18T04:39:49.797Z,10.03
2018-04-18T04:42:17.430Z,10.13
2018-04-18T04:44:45.069Z,8.67
2018-04-18T04:47:12.706Z,8.97
2018-04-18T04:49:40.319Z,8.53
2018-04-18T04:52:07.949Z,7.60
2018-04-18T04:54:35.560Z,9.43
2018-04-18T04:57:03.258Z,8.90
2018-04-18T04:59:30.871Z,8.80
2018-04-18T05:01:58.583Z,8.23
2018-04-18T05:04:26.252Z,8.77
2018-04-18T05:06:53.910Z,9.37
2018-04-18T05:09:21.672Z,10.10
2018-04-18T05:11:49.308Z,8.33
2018-04-18T05:14:16.924Z,7.97
2018-04-18T05:16:44.603Z,8.93
2018-04-18T05:19:12.233Z,9.63
2018-04-18T05:21:39.900Z,9.00
2018-04-18T05:24:07.530Z,9.87
2018-04-18T05:26:35.135Z,9.83
2018-04-18T05:29:02.775Z,11.23
2018-04-18T05:31:30.432Z,9.87
2018-04-18T05:33:58.094Z,12.63
2018-04-18T05:36:25.698Z,9.27
2018-04-18T05:38:53.420Z,10.50
2018-04-18T05:41:21.086Z,10.97
2018-04-18T05:43:48.847Z,11.20
2018-04-18T05:46:16.522Z,11.90
2018-04-18T05:48:44.161Z,11.30
2018-04-18T05:51:11.775Z,9.00
2018-04-18T05:53:39.415Z,9.57
2018-04-18T05:56:07.068Z,10.80
2018-04-18T05:58:34.726Z,9.40
2018-04-18T06:01:02.336Z,9.67
2018-04-18T06:03:29.986Z,9.00
2018-04-18T06:05:57.595Z,9.50
2018-04-18T06:08:25.231Z,9.13
2018-04-18T06:10:52.934Z,9.23
2018-04-18T06:13:20.594Z,8.83
2018-04-18T06:15:48.264Z,11.10
2018-04-18T06:18:15.931Z,9.27
2018-04-18T06:20:43.583Z,9.90
2018-04-18T06:23:11.218Z,9.23
2018-04-18T06:25:38.843Z,10.20
2018-04-18T06:28:06.488Z,9.73
2018-04-18T06:30:34.102Z,9.70
2018-04-18T06:33:01.896Z,9.63
2018-04-18T06:35:29.662Z,8.93
2018-04-18T06:37:57.336Z,10.27
2018-04-18T06:40:24.986Z,9.93
2018-04-18T06:42:52.590Z,9.70
2018-04-18T06:45:20.223Z,9.73
2018-04-18T06:47:47.888Z,10.03
2018-04-18T06:50:15.522Z,9.10
2018-04-18T06:52:43.211Z,10.43
2018-04-18T06:55:10.847Z,10.20
2018-04-18T06:57:38.518Z,10.23
2018-04-18T07:00:06.135Z,9.83
2018-04-18T07:02:33.746Z,9.60
2018-04-18T07:05:01.393Z,9.00
2018-04-18T07:07:29.003Z,9.57
2018-04-18T07:09:56.748Z,10.90
2018-04-18T07:12:24.358Z,9.83
2018-04-18T07:14:52.076Z,13.20
2018-04-18T07:17:19.738Z,9.40
2018-04-18T07:19:47.380Z,10.23
2018-04-18T07:22:15.055Z,10.33
2018-04-18T07:24:42.814Z,10.33
2018-04-18T07:27:11.200Z,12.17
2018-04-18T07:29:38.839Z,10.83
2018-04-18T07:32:06.480Z,12.87
2018-04-18T07:34:34.127Z,13.23
2018-04-18T07:37:01.850Z,12.43
2018-04-18T07:39:29.507Z,12.80
2018-04-18T07:41:57.123Z,14.83
2018-04-18T07:44:24.739Z,15.00
2018-04-18T07:46:52.403Z,13.90
2018-04-18T07:49:20.021Z,16.40
2018-04-18T07:51:47.654Z,16.77
2018-04-18T07:54:15.287Z,17.90
2018-04-18T07:56:42.956Z,23.30
2018-04-18T07:59:10.580Z,25.63
2018-04-18T08:01:38.267Z,25.90
2018-04-18T08:04:05.929Z,24.43
2018-04-18T08:06:33.694Z,27.87
2018-04-18T08:09:01.311Z,26.40
2018-04-18T08:11:28.952Z,28.47
2018-04-18T08:13:56.590Z,29.20
2018-04-18T08:16:24.222Z,29.83
2018-04-18T08:18:51.914Z,30.30
2018-04-18T08:21:19.671Z,32.03
2018-04-18T08:23:47.314Z,31.97
2018-04-18T08:26:15.080Z,33.37
2018-04-18T08:28:42.699Z,32.00
2018-04-18T08:31:10.338Z,30.90
2018-04-18T08:33:37.997Z,33.40
2018-04-18T08:36:05.643Z,32.60
2018-04-18T08:38:33.264Z,31.67
2018-04-18T08:41:00.908Z,32.90
2018-04-18T08:43:28.539Z,32.83
2018-04-18T08:45:56.194Z,34.27
2018-04-18T08:48:23.811Z,30.17
2018-04-18T08:50:51.455Z,33.50
2018-04-18T08:53:19.070Z,33.80
2018-04-18T08:55:46.751Z,34.30
2018-04-18T08:58:14.420Z,31.67
2018-04-18T09:00:42.066Z,34.37
2018-04-18T09:03:09.698Z,32.30
2018-04-18T09:05:37.313Z,30.90
2018-04-18T09:08:05.157Z,34.00
2018-04-18T09:10:32.780Z,30.20
2018-04-18T09:13:00.418Z,30.17
2018-04-18T09:15:28.037Z,31.03
2018-04-18T09:17:55.705Z,30.20
2018-04-18T09:20:23.376Z,31.30
2018-04-18T09:22:51.019Z,29.10
2018-04-18T09:25:18.698Z,31.50
2018-04-18T09:27:46.362Z,31.87
2018-04-18T09:30:14.027Z,29.83
2018-04-18T09:32:41.697Z,30.60
2018-04-18T09:35:09.351Z,30.63
2018-04-18T09:37:36.995Z,29.23
2018-04-18T09:40:04.610Z,28.83
2018-04-18T09:42:32.254Z,30.43
2018-04-18T09:44:59.890Z,27.63
2018-04-18T09:47:27.554Z,29.40
2018-04-18T09:49:55.172Z,27.40
2018-04-18T09:52:22.816Z,26.37
2018-04-18T09:54:50.436Z,26.20
2018-04-18T09:57:18.080Z,25.23
2018-04-18T09:59:45.699Z,26.90
2018-04-18T10:02:18.331Z,27.17
2018-04-18T10:04:46.020Z,28.57
2018-04-18T10:07:13.635Z,27.40
2018-04-18T10:09:41.339Z,28.20
2018-04-18T10:12:08.946Z,29.10
2018-04-18T10:14:36.586Z,29.13
2018-04-18T10:17:04.199Z,27.83
2018-04-18T10:19:31.847Z,27.03
2018-04-18T10:21:59.463Z,25.13
2018-04-18T10:24:27.205Z,27.17
2018-04-18T10:26:54.827Z,26.60
2018-04-18T10:29:22.539Z,26.53
2018-04-18T10:31:50.163Z,27.00
2018-04-18T10:34:17.863Z,28.27
2018-04-18T10:36:45.480Z,29.17
2018-04-18T10:39:13.123Z,29.10
2018-04-18T10:41:40.846Z,26.37
2018-04-18T10:44:08.481Z,25.27
2018-04-18T10:46:36.167Z,25.63
2018-04-18T10:49:03.821Z,27.43
2018-04-18T10:51:31.503Z,30.00
2018-04-18T10:53:59.167Z,32.23
2018-04-18T10:56:26.827Z,29.63
2018-04-18T10:58:54.458Z,25.20
2018-04-18T11:01:22.079Z,25.07
2018-04-18T11:03:49.822Z,27.80
2018-04-18T11:06:17.478Z,29.00
2018-04-18T11:08:45.114Z,31.07
2018-04-18T11:11:12.746Z,30.83
2018-04-18T11:13:40.387Z,26.83
2018-04-18T11:16:07.999Z,30.87
2018-04-18T11:18:35.619Z,29.70
2018-04-18T11:21:03.264Z,30.27
2018-04-18T11:23:30.883Z,28.87
2018-04-18T11:25:58.575Z,24.67
2018-04-18T11:28:26.191Z,27.43
2018-04-18T11:30:53.836Z,26.90
2018-04-18T11:33:21.462Z,28.90
2018-04-18T11:35:49.104Z,28.47
2018-04-18T11:38:16.728Z,30.30
2018-04-18T11:40:44.370Z,29.27
2018-04-18T11:43:12.011Z,24.47
2018-04-18T11:45:39.658Z,26.90
2018-04-18T11:48:07.335Z,24.03
2018-04-18T11:50:35.711Z,25.27
2018-04-18T11:53:03.378Z,27.37
2018-04-18T11:55:31.033Z,26.57
2018-04-18T11:57:58.655Z,27.20
2018-04-18T12:00:26.363Z,26.77
2018-04-18T12:02:54.031Z,28.33
2018-04-18T12:05:21.676Z,26.20
2018-04-18T12:07:49.447Z,25.70
2018-04-18T12:10:17.088Z,26.90
2018-04-18T12:12:44.720Z,24.43
2018-04-18T12:15:12.450Z,22.70
2018-04-18T12:17:40.077Z,27.43
2018-04-18T12:20:07.732Z,23.53
2018-04-18T12:22:35.370Z,23.27
2018-04-18T12:25:03.098Z,22.07
2018-04-18T12:27:30.721Z,23.53
2018-04-18T12:29:58.415Z,24.70
2018-04-18T12:32:26.036Z,23.50
2018-04-18T12:34:53.649Z,23.97
2018-04-18T12:37:21.397Z,22.47
2018-04-18T12:39:49.015Z,19.63
2018-04-18T12:42:16.730Z,21.20
2018-04-18T12:44:44.341Z,22.93
2018-04-18T12:47:11.979Z,21.77
2018-04-18T12:49:39.602Z,23.00
2018-04-18T12:52:07.243Z,24.03
2018-04-18T12:54:34.860Z,23.20
2018-04-18T12:57:02.504Z,23.70
2018-04-18T12:59:30.162Z,21.40
2018-04-18T13:01:57.829Z,19.20
2018-04-18T13:04:25.442Z,17.40
2018-04-18T13:06:53.077Z,21.23
2018-04-18T13:09:20.696Z,20.23
2018-04-18T13:11:48.369Z,18.93
2018-04-18T13:14:15.998Z,17.47
2018-04-18T13:16:43.703Z,21.17
2018-04-18T13:19:11.359Z,20.97
2018-04-18T13:21:38.999Z,19.23
2018-04-18T13:24:06.617Z,19.17
2018-04-18T13:26:34.352Z,19.73
2018-04-18T13:29:02.017Z,17.70
2018-04-18T13:31:29.668Z,17.80
2018-04-18T13:33:57.290Z,16.00
2018-04-18T13:36:24.990Z,17.30
2018-04-18T13:38:52.658Z,18.37
2018-04-18T13:41:20.323Z,20.90
2018-04-18T13:43:47.992Z,18.53
2018-04-18T13:46:15.613Z,21.77
2018-04-18T13:48:43.305Z,22.70
2018-04-18T13:51:10.927Z,21.00
2018-04-18T13:53:38.759Z,25.60
2018-04-18T13:56:06.403Z,22.70
2018-04-18T13:58:34.039Z,21.67
2018-04-18T14:01:01.728Z,23.67
2018-04-18T14:03:29.371Z,22.30
2018-04-18T14:05:56.983Z,23.27
2018-04-18T14:08:24.717Z,22.53
2018-04-18T14:10:52.335Z,18.93
2018-04-18T14:13:19.970Z,19.63
2018-04-18T14:15:47.583Z,22.17
2018-04-18T14:18:15.265Z,20.27
2018-04-18T14:20:42.884Z,20.93
2018-04-18T14:23:10.527Z,20.77
2018-04-18T14:25:38.147Z,19.20
2018-04-18T14:28:05.795Z,21.13
2018-04-18T14:30:33.418Z,20.67
2018-04-18T14:33:01.059Z,20.47
2018-04-18T14:35:28.685Z,20.93
2018-04-18T14:37:57.058Z,20.13
2018-04-18T14:40:24.738Z,19.37
2018-04-18T14:42:52.383Z,19.80
2018-04-18T14:45:20.201Z,20.03
2018-04-18T14:47:47.839Z,19.33
2018-04-18T14:50:15.491Z,21.40
2018-04-18T14:52:43.150Z,20.53
2018-04-18T14:55:10.823Z,20.93
2018-04-18T14:57:38.475Z,19.97
2018-04-18T15:00:06.096Z,19.00
2018-04-18T15:02:33.812Z,19.27
2018-04-18T15:05:01.461Z,18.47
2018-04-18T15:07:29.131Z,20.47
2018-04-18T15:09:56.796Z,19.43
2018-04-18T15:12:24.454Z,18.73
2018-04-18T15:14:52.096Z,18.60
2018-04-18T15:17:19.787Z,18.10
2018-04-18T15:19:47.423Z,18.47
2018-04-18T15:22:15.046Z,18.00
2018-04-18T15:24:42.682Z,16.70
2018-04-18T15:27:10.322Z,17.03
2018-04-18T15:29:37.959Z,17.17
2018-04-18T15:32:05.660Z,16.00
2018-04-18T15:34:33.307Z,15.30
2018-04-18T15:37:00.923Z,16.20
2018-04-18T15:39:28.568Z,16.30
2018-04-18T15:41:56.211Z,16.13
2018-04-18T15:44:23.859Z,15.80
2018-04-18T15:46:51.474Z,14.37
2018-04-18T15:49:19.199Z,14.87
2018-04-18T15:51:46.854Z,16.70
2018-04-18T15:54:14.525Z,15.07
2018-04-18T15:56:42.137Z,16.53
2018-04-18T15:59:09.775Z,15.93
2018-04-18T16:01:37.502Z,15.70
2018-04-18T16:04:05.151Z,14.30
2018-04-18T16:06:32.770Z,14.27
2018-04-18T16:09:00.396Z,12.80
2018-04-18T16:11:28.031Z,12.47
2018-04-18T16:13:55.699Z,11.83
2018-04-18T16:16:23.383Z,11.07
2018-04-18T16:18:50.998Z,8.70
2018-04-18T16:21:18.708Z,7.43
2018-04-18T16:23:46.320Z,6.80
2018-04-18T16:26:13.955Z,5.30
2018-04-18T16:28:41.570Z,4.47
2018-04-18T16:31:09.241Z,6.03
2018-04-18T16:33:37.428Z,4.40
2018-04-18T16:36:05.088Z,4.63
2018-04-18T16:38:32.693Z,4.70
2018-04-18T16:41:00.335Z,5.60
2018-04-18T16:43:27.960Z,5.33
2018-04-18T16:45:55.599Z,7.87
2018-04-18T16:48:23.228Z,9.53
2018-04-18T16:50:50.959Z,9.40
2018-04-18T16:53:18.627Z,12.23
2018-04-18T16:55:46.255Z,9.93
2018-04-18T16:58:13.867Z,12.20
2018-04-18T17:00:41.502Z,11.37
2018-04-18T17:03:09.171Z,11.70
2018-04-18T17:05:36.816Z,11.07
2018-04-18T17:08:04.441Z,11.07
2018-04-18T17:10:32.088Z,12.40
2018-04-18T17:12:59.704Z,10.53
2018-04-18T17:15:27.383Z,11.10
2018-04-18T17:17:55.007Z,12.97
2018-04-18T17:20:22.703Z,11.80
2018-04-18T17:22:50.367Z,11.70
2018-04-18T17:25:17.992Z,12.40
2018-04-18T17:27:45.640Z,10.80
2018-04-18T17:30:13.255Z,11.00
2018-04-18T17:32:40.891Z,12.67
2018-04-18T17:35:08.511Z,13.03
2018-04-18T17:37:36.160Z,12.40
2018-04-18T17:40:03.789Z,12.47
2018-04-18T17:42:31.431Z,12.13
2018-04-18T17:44:59.052Z,12.20
2018-04-18T17:47:26.778Z,14.50
2018-04-18T17:49:55.061Z,12.17
2018-04-18T17:52:22.699Z,12.97
2018-04-18T17:54:50.316Z,12.87
2018-04-18T17:57:17.959Z,12.87
2018-04-18T17:59:45.611Z,12.93
2018-04-18T18:02:13.367Z,12.20
2018-04-18T18:04:40.975Z,11.63
2018-04-18T18:07:08.704Z,13.67
2018-04-18T18:09:36.365Z,14.80
2018-04-18T18:12:04.007Z,14.33
2018-04-18T18:14:31.627Z,12.83
2018-04-18T18:16:59.349Z,13.20
2018-04-18T18:19:26.964Z,13.53
2018-04-18T18:21:54.668Z,13.97
2018-04-18T18:24:22.282Z,12.80
2018-04-18T18:26:49.923Z,11.00
2018-04-18T18:29:17.535Z,13.40
2018-04-18T18:31:45.160Z,13.13
2018-04-18T18:34:12.814Z,13.83
2018-04-18T18:36:40.443Z,13.60
2018-04-18T18:39:08.116Z,11.17
2018-04-18T18:41:35.730Z,12.47
2018-04-18T18:44:03.431Z,14.67
2018-04-18T18:46:31.095Z,15.07
2018-04-18T18:48:58.735Z,12.53
2018-04-18T18:51:26.351Z,13.67
2018-04-18T18:53:53.995Z,21.10
2018-04-18T18:56:21.650Z,17.50
2018-04-18T18:58:49.287Z,16.27
2018-04-18T19:01:16.902Z,17.60
2018-04-18T19:03:44.544Z,18.30
2018-04-18T19:06:12.191Z,17.13
2018-04-18T19:08:39.835Z,15.00
2018-04-18T19:11:07.456Z,17.40
2018-04-18T19:13:35.188Z,16.30
2018-04-18T19:16:02.807Z,15.77
2018-04-18T19:18:30.460Z,16.70
2018-04-18T19:20:58.089Z,13.50
2018-04-18T19:23:25.723Z,11.33
2018-04-18T19:25:53.335Z,14.80
2018-04-18T19:28:21.026Z,16.83
2018-04-18T19:30:49.593Z,16.77
2018-04-18T19:33:17.207Z,14.20
2018-04-18T19:35:44.845Z,17.40
2018-04-18T19:38:12.718Z,15.50
2018-04-18T19:40:40.383Z,17.30
2018-04-18T19:43:08.011Z,17.73
2018-04-18T19:45:35.714Z,15.33
2018-04-18T19:48:03.374Z,17.23
2018-04-18T19:50:31.039Z,18.33
2018-04-18T19:52:58.655Z,18.67
2018-04-18T19:55:26.303Z,21.40
2018-04-18T19:57:53.922Z,19.73
2018-04-18T20:00:21.573Z,27.70
2018-04-18T20:02:49.190Z,27.10
2018-04-18T20:05:16.845Z,27.57
2018-04-18T20:07:44.504Z,24.40
2018-04-18T20:10:12.129Z,22.10
2018-04-18T20:12:39.751Z,21.90
2018-04-18T20:15:10.182Z,20.30
2018-04-18T20:17:37.794Z,22.10
2018-04-18T20:20:05.432Z,21.27
2018-04-18T20:22:33.059Z,21.53
2018-04-18T20:25:00.707Z,22.73
2018-04-18T20:27:28.327Z,19.60
2018-04-18T20:29:55.968Z,24.60
2018-04-18T20:32:23.588Z,21.87
2018-04-18T20:34:51.418Z,20.23
2018-04-18T20:37:19.099Z,18.93
2018-04-18T20:39:46.847Z,20.13
2018-04-18T20:42:14.477Z,20.43
2018-04-18T20:44:42.271Z,20.80
2018-04-18T20:47:09.965Z,24.67
2018-04-18T20:49:37.627Z,21.73
2018-04-18T20:52:05.263Z,20.43
2018-04-18T20:54:32.874Z,18.63
2018-04-18T20:57:00.511Z,19.00
2018-04-18T20:59:28.130Z,26.67
2018-04-18T21:01:55.810Z,27.17
2018-04-18T21:04:23.470Z,28.43
2018-04-18T21:06:51.106Z,22.20
2018-04-18T21:09:18.727Z,23.30
2018-04-18T21:11:46.363Z,21.47
2018-04-18T21:14:14.011Z,25.17
2018-04-18T21:16:41.648Z,23.40
2018-04-18T21:19:09.276Z,19.67
2018-04-18T21:21:36.918Z,21.93
2018-04-18T21:24:04.535Z,24.90
2018-04-18T21:26:32.177Z,24.40
2018-04-18T21:28:59.791Z,22.77
2018-04-18T21:31:27.516Z,21.10
2018-04-18T21:33:55.119Z,22.37
2018-04-18T21:36:22.754Z,22.33
2018-04-18T21:38:50.372Z,23.93
2018-04-18T21:41:18.010Z,24.13
2018-04-18T21:43:45.632Z,25.03
2018-04-18T21:46:13.331Z,24.03
2018-04-18T21:48:40.956Z,24.00
2018-04-18T21:51:08.650Z,25.63
2018-04-18T21:53:36.315Z,20.30
2018-04-18T21:56:03.979Z,17.67
2018-04-18T21:58:31.613Z,17.83
2018-04-18T22:00:59.227Z,14.80
2018-04-18T22:03:26.962Z,18.43
2018-04-18T22:05:54.575Z,22.40
2018-04-18T22:08:22.291Z,22.20
2018-04-18T22:10:49.907Z,23.20
2018-04-18T22:13:17.548Z,22.57
2018-04-18T22:15:45.174Z,21.60
2018-04-18T22:18:12.814Z,20.73
2018-04-18T22:20:40.426Z,18.40
2018-04-18T22:23:08.068Z,15.63
2018-04-18T22:25:35.691Z,15.50
2018-04-18T22:28:03.391Z,16.27
2018-04-18T22:30:31.011Z,17.00
2018-04-18T22:32:58.647Z,14.60
2018-04-18T22:35:26.370Z,17.07
2018-04-18T22:37:54.030Z,16.90
2018-04-18T22:40:21.693Z,17.63
2018-04-18T22:42:49.364Z,16.40
2018-04-18T22:45:17.030Z,17.97
2018-04-18T22:47:44.671Z,16.07
2018-04-18T22:50:12.290Z,15.90
2018-04-18T22:52:40.021Z,15.30
2018-04-18T22:55:07.642Z,16.03
2018-04-18T22:57:35.280Z,16.13
2018-04-18T23:00:02.901Z,13.97
2018-04-18T23:02:30.539Z,18.90
2018-04-18T23:04:58.227Z,13.93
2018-04-18T23:07:25.844Z,14.27
2018-04-18T23:09:53.547Z,14.80
2018-04-18T23:12:21.218Z,13.60
2018-04-18T23:14:48.855Z,12.90
2018-04-18T23:17:16.534Z,13.10
2018-04-18T23:19:44.179Z,12.70
2018-04-18T23:22:11.803Z,14.23
2018-04-18T23:24:39.442Z,11.80
2018-04-18T23:27:07.068Z,14.70
2018-04-18T23:29:34.751Z,11.93
2018-04-18T23:32:02.368Z,14.00
2018-04-18T23:34:30.063Z,13.83
2018-04-18T23:36:57.687Z,13.87
2018-04-18T23:39:25.322Z,14.90
2018-04-18T23:41:52.935Z,14.00
2018-04-18T23:44:20.586Z,15.03
2018-04-18T23:46:48.207Z,14.77
2018-04-18T23:49:15.942Z,14.83
2018-04-18T23:51:43.559Z,15.53
2018-04-18T23:54:11.274Z,16.03
2018-04-18T23:56:38.930Z,15.97
2018-04-18T23:59:06.566Z,14.67
